createdAt,value
2023-04-30T00:01:11.918Z,4.67
2023-04-30T00:03:39.186Z,4.57
2023-04-30T00:06:06.500Z,5.40
2023-04-30T00:08:33.811Z,4.85
2023-04-30T00:11:02.441Z,4.30
2023-04-30T00:13:29.208Z,5.60
2023-04-30T00:15:58.510Z,5.90
2023-04-30T00:18:25.908Z,4.40
2023-04-30T00:20:52.879Z,4.60
2023-04-30T00:26:11.520Z,4.13
2023-04-30T00:28:40.550Z,4.45
2023-04-30T00:31:07.263Z,5.28
2023-04-30T00:33:36.093Z,6.03
2023-04-30T00:36:02.784Z,4.68
2023-04-30T00:38:29.622Z,5.17
2023-04-30T00:40:56.582Z,5.40
2023-04-30T00:43:24.294Z,4.97
2023-04-30T00:45:51.406Z,5.10
2023-04-30T00:48:19.408Z,5.38
2023-04-30T00:50:46.274Z,4.90
2023-04-30T00:53:13.472Z,4.80
2023-04-30T00:55:41.724Z,5.40
2023-04-30T00:58:08.549Z,5.35
2023-04-30T01:00:40.546Z,5.05
2023-04-30T01:03:07.964Z,4.83
2023-04-30T01:05:35.516Z,5.63
2023-04-30T01:08:02.297Z,6.85
2023-04-30T01:10:42.565Z,7.15
2023-04-30T01:13:28.843Z,6.47
2023-04-30T01:16:18.257Z,6.50
2023-04-30T01:18:54.707Z,5.88
2023-04-30T01:21:23.584Z,7.30
2023-04-30T01:24:14.172Z,6.35
2023-04-30T01:27:00.028Z,6.72
2023-04-30T01:29:27.228Z,6.87
2023-04-30T01:31:54.056Z,8.10
2023-04-30T01:34:20.962Z,8.02
2023-04-30T01:37:16.468Z,8.05
2023-04-30T01:40:03.194Z,6.85
2023-04-30T01:42:52.476Z,7.23
2023-04-30T01:45:32.440Z,7.68
2023-04-30T01:48:18.208Z,9.38
2023-04-30T01:50:56.218Z,8.68
2023-04-30T01:53:32.255Z,8.25
2023-04-30T01:56:44.524Z,8.43
2023-04-30T01:59:12.872Z,8.80
2023-04-30T02:01:39.848Z,9.05
2023-04-30T02:04:07.906Z,8.23
2023-04-30T02:06:35.634Z,8.48
2023-04-30T02:09:02.485Z,8.50
2023-04-30T02:11:34.579Z,10.02
2023-04-30T02:14:01.426Z,9.70
2023-04-30T02:16:28.369Z,9.80
2023-04-30T02:18:58.485Z,8.77
2023-04-30T02:21:25.378Z,11.17
2023-04-30T02:23:52.170Z,8.90
2023-04-30T02:26:19.019Z,8.40
2023-04-30T02:31:38.002Z,9.82
2023-04-30T02:34:04.707Z,9.63
2023-04-30T02:36:56.781Z,8.70
2023-04-30T02:39:23.790Z,9.30
2023-04-30T02:41:50.666Z,8.40
2023-04-30T02:44:17.652Z,8.20
2023-04-30T02:46:44.551Z,9.63
2023-04-30T02:49:11.538Z,8.68
2023-04-30T02:51:38.408Z,9.57
2023-04-30T02:54:06.617Z,8.82
2023-04-30T02:56:33.649Z,9.07
2023-04-30T02:59:00.914Z,9.80
2023-04-30T03:01:28.275Z,9.30
2023-04-30T03:03:55.086Z,9.90
2023-04-30T03:06:23.555Z,7.72
2023-04-30T03:08:51.051Z,9.52
2023-04-30T03:11:18.562Z,9.97
2023-04-30T03:13:45.592Z,9.10
2023-04-30T03:16:12.498Z,9.65
2023-04-30T03:18:40.078Z,9.38
2023-04-30T03:21:06.918Z,8.65
2023-04-30T03:23:37.699Z,8.47
2023-04-30T03:26:04.794Z,10.02
2023-04-30T03:28:32.171Z,8.95
2023-04-30T03:30:58.982Z,11.18
2023-04-30T03:33:26.050Z,9.15
2023-04-30T03:35:53.004Z,9.63
2023-04-30T03:38:19.839Z,9.35
2023-04-30T03:40:46.566Z,10.30
2023-04-30T03:43:14.574Z,8.52
2023-04-30T03:45:41.446Z,8.63
2023-04-30T03:48:12.489Z,9.30
2023-04-30T03:53:30.765Z,10.18
2023-04-30T03:55:58.699Z,12.15
2023-04-30T03:58:54.600Z,8.60
2023-04-30T04:01:22.068Z,8.80
2023-04-30T04:03:50.393Z,8.13
2023-04-30T04:06:17.343Z,8.60
2023-04-30T04:08:46.780Z,9.30
2023-04-30T04:11:14.328Z,9.57
2023-04-30T04:13:41.195Z,8.67
2023-04-30T04:16:08.139Z,8.32
2023-04-30T04:18:36.071Z,7.97
2023-04-30T04:21:02.872Z,9.32
2023-04-30T04:23:31.224Z,9.73
2023-04-30T04:25:59.363Z,8.13
2023-04-30T04:28:27.139Z,8.70
2023-04-30T04:30:54.114Z,8.75
2023-04-30T04:33:21.674Z,9.77
2023-04-30T04:35:50.222Z,8.23
2023-04-30T04:38:17.046Z,8.10
2023-04-30T04:40:54.710Z,8.10
2023-04-30T04:43:23.282Z,10.90
2023-04-30T04:45:50.296Z,9.55
2023-04-30T04:48:17.513Z,8.70
2023-04-30T04:50:45.617Z,9.37
2023-04-30T04:53:13.074Z,7.90
2023-04-30T04:55:39.838Z,11.90
2023-04-30T04:58:09.297Z,7.97
2023-04-30T05:00:36.189Z,7.80
2023-04-30T05:03:03.693Z,9.80
2023-04-30T05:05:31.944Z,8.35
2023-04-30T05:07:58.630Z,7.78
2023-04-30T05:10:26.816Z,9.45
2023-04-30T05:12:53.574Z,8.70
2023-04-30T05:15:20.542Z,9.67
2023-04-30T05:17:47.597Z,9.60
2023-04-30T05:20:14.466Z,9.60
2023-04-30T05:22:41.725Z,8.70
2023-04-30T05:25:09.610Z,10.05
2023-04-30T05:27:36.528Z,10.03
2023-04-30T05:30:05.815Z,9.18
2023-04-30T05:32:33.057Z,9.10
2023-04-30T05:34:59.930Z,7.88
2023-04-30T05:40:19.642Z,8.10
2023-04-30T05:42:46.725Z,7.45
2023-04-30T05:45:13.730Z,8.13
2023-04-30T05:47:41.521Z,8.38
2023-04-30T05:50:10.177Z,9.80
2023-04-30T05:52:37.073Z,8.53
2023-04-30T05:55:05.662Z,9.50
2023-04-30T05:57:32.513Z,8.43
2023-04-30T06:00:00.522Z,8.02
2023-04-30T06:02:28.019Z,8.52
2023-04-30T06:04:55.563Z,9.37
2023-04-30T06:07:22.890Z,9.63
2023-04-30T06:09:50.637Z,8.82
2023-04-30T06:12:17.513Z,9.48
2023-04-30T06:14:44.487Z,8.73
2023-04-30T06:17:13.025Z,9.53
2023-04-30T06:19:40.035Z,7.63
2023-04-30T06:22:06.819Z,7.10
2023-04-30T06:24:36.498Z,8.50
2023-04-30T06:27:07.620Z,9.23
2023-04-30T06:29:37.960Z,7.50
2023-04-30T06:34:59.621Z,8.80
2023-04-30T06:37:26.491Z,7.68
2023-04-30T06:39:53.725Z,8.05
2023-04-30T06:42:22.597Z,7.43
2023-04-30T06:44:49.383Z,7.47
2023-04-30T06:47:16.555Z,7.10
2023-04-30T06:49:43.261Z,7.22
2023-04-30T06:52:10.937Z,8.38
2023-04-30T06:54:37.793Z,6.00
2023-04-30T06:57:04.597Z,8.93
2023-04-30T06:59:32.957Z,6.78
2023-04-30T07:02:01.841Z,6.35
2023-04-30T07:04:28.669Z,9.43
2023-04-30T07:06:55.355Z,8.50
2023-04-30T07:09:22.575Z,5.78
2023-04-30T07:11:50.029Z,5.93
2023-04-30T07:14:16.719Z,5.90
2023-04-30T07:16:47.629Z,6.43
2023-04-30T07:19:14.988Z,7.60
2023-04-30T07:21:42.171Z,6.15
2023-04-30T07:24:11.087Z,6.82
2023-04-30T07:26:38.005Z,6.97
2023-04-30T07:29:05.075Z,6.97
2023-04-30T07:31:31.760Z,6.53
2023-04-30T07:33:58.665Z,6.47
2023-04-30T07:36:25.672Z,6.57
2023-04-30T07:38:52.431Z,6.95
2023-04-30T07:41:20.249Z,6.55
2023-04-30T07:43:47.020Z,6.67
2023-04-30T07:46:15.602Z,6.38
2023-04-30T07:48:45.944Z,6.65
2023-04-30T07:51:12.828Z,6.47
2023-04-30T07:54:04.780Z,8.50
2023-04-30T07:56:33.570Z,6.20
2023-04-30T07:59:00.367Z,6.20
2023-04-30T08:01:27.920Z,5.78
2023-04-30T08:03:54.973Z,6.03
2023-04-30T08:06:21.821Z,5.30
2023-04-30T08:08:48.883Z,5.57
2023-04-30T08:11:18.037Z,7.07
2023-04-30T08:13:45.263Z,7.43
2023-04-30T08:16:12.315Z,7.57
2023-04-30T08:18:45.880Z,6.15
2023-04-30T08:21:14.559Z,6.77
2023-04-30T08:23:42.223Z,8.27
2023-04-30T08:26:09.543Z,6.15
2023-04-30T08:28:37.114Z,7.65
2023-04-30T08:31:04.010Z,6.47
2023-04-30T08:33:55.812Z,5.63
2023-04-30T08:36:22.621Z,5.53
2023-04-30T08:38:51.650Z,6.10
2023-04-30T08:41:22.803Z,5.22
2023-04-30T08:43:53.572Z,6.72
2023-04-30T08:46:21.132Z,4.97
2023-04-30T08:48:48.166Z,4.60
2023-04-30T08:51:15.353Z,5.40
2023-04-30T08:53:42.874Z,5.55
2023-04-30T08:56:10.879Z,4.57
2023-04-30T08:58:37.764Z,7.23
2023-04-30T09:03:59.373Z,5.97
2023-04-30T09:06:28.153Z,7.82
2023-04-30T09:08:55.026Z,5.57
2023-04-30T09:11:24.356Z,4.63
2023-04-30T09:13:55.498Z,6.57
2023-04-30T09:16:22.332Z,5.95
2023-04-30T09:18:54.522Z,4.95
2023-04-30T09:21:35.896Z,5.80
2023-04-30T09:24:06.825Z,6.30
2023-04-30T09:26:38.604Z,4.95
2023-04-30T09:29:38.721Z,5.90
2023-04-30T09:32:09.301Z,5.45
2023-04-30T09:37:39.385Z,5.63
2023-04-30T09:40:06.729Z,6.18
2023-04-30T09:43:05.556Z,6.25
2023-04-30T09:45:42.275Z,5.70
2023-04-30T09:48:17.302Z,4.63
2023-04-30T09:50:49.463Z,6.70
2023-04-30T09:53:17.221Z,5.90
2023-04-30T09:55:46.708Z,5.60
2023-04-30T09:58:15.043Z,5.65
2023-04-30T10:00:42.904Z,5.47
2023-04-30T10:03:11.682Z,5.40
2023-04-30T10:05:42.895Z,5.20
2023-04-30T10:08:19.259Z,5.75
2023-04-30T10:10:50.680Z,5.38
2023-04-30T10:13:20.402Z,5.93
2023-04-30T10:15:55.650Z,5.93
2023-04-30T10:18:31.428Z,4.57
2023-04-30T10:21:03.614Z,4.97
2023-04-30T10:23:31.091Z,5.97
2023-04-30T10:25:58.079Z,5.03
2023-04-30T10:28:25.181Z,6.17
2023-04-30T10:30:52.585Z,5.00
2023-04-30T10:33:34.559Z,5.70
2023-04-30T10:36:05.824Z,4.78
2023-04-30T10:38:33.928Z,4.63
2023-04-30T10:41:01.523Z,7.33
2023-04-30T10:43:32.759Z,5.60
2023-04-30T10:45:59.812Z,6.25
2023-04-30T10:48:27.666Z,5.57
2023-04-30T10:50:59.424Z,5.38
2023-04-30T10:53:31.206Z,5.20
2023-04-30T10:56:02.146Z,5.93
2023-04-30T10:58:37.594Z,5.20
2023-04-30T11:01:11.656Z,4.38
2023-04-30T11:04:07.316Z,4.75
2023-04-30T11:06:52.574Z,4.40
2023-04-30T11:13:03.126Z,4.82
2023-04-30T11:15:45.645Z,5.45
2023-04-30T11:18:14.316Z,5.53
2023-04-30T11:20:41.793Z,5.27
2023-04-30T11:26:08.094Z,5.65
2023-04-30T11:28:37.773Z,4.97
2023-04-30T11:31:05.408Z,5.97
2023-04-30T11:33:34.368Z,5.33
2023-04-30T11:38:56.633Z,9.65
2023-04-30T11:41:23.524Z,7.32
2023-04-30T11:43:50.358Z,6.53
2023-04-30T11:46:17.275Z,8.10
2023-04-30T11:48:47.505Z,5.85
2023-04-30T11:51:21.542Z,7.07
2023-04-30T11:53:51.717Z,7.47
2023-04-30T11:56:20.167Z,6.97
2023-04-30T11:58:51.825Z,5.70
2023-04-30T12:01:20.390Z,5.22
2023-04-30T12:03:50.851Z,6.90
2023-04-30T12:06:25.972Z,4.97
2023-04-30T12:09:00.549Z,5.30
2023-04-30T12:11:30.226Z,7.57
2023-04-30T12:14:01.570Z,5.57
2023-04-30T12:16:45.696Z,6.15
2023-04-30T12:19:13.322Z,5.63
2023-04-30T12:21:42.237Z,4.93
2023-04-30T12:24:18.696Z,5.77
2023-04-30T12:26:47.129Z,5.65
2023-04-30T12:29:19.246Z,4.80
2023-04-30T12:31:49.818Z,5.55
2023-04-30T12:34:17.561Z,6.38
2023-04-30T12:36:44.473Z,6.00
2023-04-30T12:39:16.088Z,7.43
2023-04-30T12:41:45.660Z,7.28
2023-04-30T12:44:24.571Z,5.82
2023-04-30T12:46:56.718Z,6.57
2023-04-30T12:49:24.628Z,7.63
2023-04-30T12:52:06.922Z,6.68
2023-04-30T12:54:36.650Z,5.72
2023-04-30T12:57:12.937Z,7.82
2023-04-30T13:02:44.705Z,8.23
2023-04-30T13:05:13.120Z,7.50
2023-04-30T13:07:41.015Z,7.00
2023-04-30T13:10:11.671Z,7.35
2023-04-30T13:12:39.115Z,6.80
2023-04-30T13:15:07.707Z,6.63
2023-04-30T13:17:38.090Z,7.57
2023-04-30T13:20:06.649Z,7.85
2023-04-30T13:22:37.139Z,7.43
2023-04-30T13:25:04.550Z,7.30
2023-04-30T13:27:32.068Z,8.57
2023-04-30T13:30:00.345Z,7.00
2023-04-30T13:32:27.123Z,6.60
2023-04-30T13:34:54.191Z,6.95
2023-04-30T13:37:21.271Z,7.68
2023-04-30T13:39:52.601Z,7.37
2023-04-30T13:42:20.033Z,6.40
2023-04-30T13:44:48.770Z,6.25
2023-04-30T13:47:16.740Z,5.95
2023-04-30T13:49:43.705Z,5.53
2023-04-30T13:52:13.028Z,5.93
2023-04-30T13:54:40.359Z,5.53
2023-04-30T13:57:08.085Z,6.53
2023-04-30T13:59:36.141Z,6.25
2023-04-30T14:02:04.581Z,5.57
2023-04-30T14:05:05.288Z,6.10
2023-04-30T14:07:33.296Z,4.70
2023-04-30T14:10:00.163Z,5.75
2023-04-30T14:12:55.720Z,5.95
2023-04-30T14:15:22.565Z,5.45
2023-04-30T14:17:50.287Z,4.70
2023-04-30T14:20:21.566Z,5.70
2023-04-30T14:22:52.006Z,4.88
2023-04-30T14:25:19.199Z,5.10
2023-04-30T14:27:47.069Z,5.13
2023-04-30T14:30:13.945Z,4.60
2023-04-30T14:32:40.924Z,4.88
2023-04-30T14:35:08.351Z,4.88
2023-04-30T14:37:36.041Z,4.82
2023-04-30T14:40:02.858Z,5.10
2023-04-30T14:42:29.703Z,4.43
2023-04-30T14:44:59.714Z,5.63
2023-04-30T14:47:26.631Z,5.10
2023-04-30T14:49:53.690Z,4.85
2023-04-30T14:52:20.981Z,5.47
2023-04-30T14:54:47.703Z,4.53
2023-04-30T14:57:15.553Z,3.70
2023-04-30T14:59:43.950Z,3.42
2023-04-30T15:02:11.627Z,3.60
2023-04-30T15:04:38.332Z,4.45
2023-04-30T15:07:05.692Z,4.10
2023-04-30T15:09:32.993Z,5.78
2023-04-30T15:12:01.090Z,4.03
2023-04-30T15:14:27.895Z,4.35
2023-04-30T15:16:54.767Z,5.13
2023-04-30T15:19:21.582Z,4.90
2023-04-30T15:21:52.114Z,3.33
2023-04-30T15:24:18.964Z,3.22
2023-04-30T15:26:45.922Z,4.10
2023-04-30T15:29:12.742Z,3.88
2023-04-30T15:31:39.592Z,3.00
2023-04-30T15:34:06.393Z,3.70
2023-04-30T15:36:33.244Z,4.10
2023-04-30T15:39:00.082Z,2.67
2023-04-30T15:41:27.052Z,4.45
2023-04-30T15:43:53.831Z,3.47
2023-04-30T15:46:20.677Z,3.58
2023-04-30T15:48:47.535Z,3.17
2023-04-30T15:51:14.239Z,2.33
2023-04-30T15:53:41.083Z,3.20
2023-04-30T15:56:08.548Z,3.50
2023-04-30T15:58:36.355Z,3.70
2023-04-30T16:01:03.575Z,3.10
2023-04-30T16:03:30.503Z,3.25
2023-04-30T16:05:57.722Z,3.40
2023-04-30T16:08:24.687Z,4.93
2023-04-30T16:10:52.202Z,2.95
2023-04-30T16:13:19.049Z,3.70
2023-04-30T16:15:46.632Z,4.40
2023-04-30T16:18:14.100Z,4.47
2023-04-30T16:20:42.624Z,3.93
2023-04-30T16:23:10.071Z,3.85
2023-04-30T16:25:37.741Z,3.92
2023-04-30T16:28:04.776Z,3.05
2023-04-30T16:30:33.691Z,4.18
2023-04-30T16:33:00.499Z,3.57
2023-04-30T16:35:27.482Z,3.63
2023-04-30T16:37:54.717Z,3.97
2023-04-30T16:40:21.553Z,3.83
2023-04-30T16:42:48.740Z,6.18
2023-04-30T16:45:17.237Z,3.40
2023-04-30T16:47:45.523Z,3.53
2023-04-30T16:50:12.382Z,4.88
2023-04-30T16:52:40.746Z,4.50
2023-04-30T16:55:07.877Z,3.78
2023-04-30T16:57:38.170Z,3.70
2023-04-30T17:00:05.468Z,5.38
2023-04-30T17:02:32.788Z,3.13
2023-04-30T17:05:00.510Z,4.03
2023-04-30T17:07:27.648Z,4.90
2023-04-30T17:09:54.971Z,3.53
2023-04-30T17:12:23.220Z,3.25
2023-04-30T17:14:52.327Z,4.75
2023-04-30T17:17:20.284Z,3.47
2023-04-30T17:19:47.225Z,3.70
2023-04-30T17:22:15.965Z,3.13
2023-04-30T17:24:44.051Z,3.53
2023-04-30T17:27:11.190Z,6.20
2023-04-30T17:29:38.559Z,3.92
2023-04-30T17:32:09.692Z,3.65
2023-04-30T17:34:37.722Z,3.27
2023-04-30T17:37:05.291Z,2.88
2023-04-30T17:39:33.522Z,3.45
2023-04-30T17:42:01.866Z,3.38
2023-04-30T17:44:29.357Z,3.42
2023-04-30T17:46:57.009Z,3.57
2023-04-30T17:49:24.394Z,2.90
2023-04-30T17:51:51.647Z,3.47
2023-04-30T17:54:21.048Z,3.38
2023-04-30T17:56:48.420Z,3.35
2023-04-30T17:59:16.560Z,3.87
2023-04-30T18:02:09.237Z,3.53
2023-04-30T18:04:37.562Z,3.78
2023-04-30T18:07:04.607Z,3.60
2023-04-30T18:12:50.096Z,2.90
2023-04-30T18:15:17.409Z,3.53
2023-04-30T18:17:46.650Z,4.70
2023-04-30T18:20:15.744Z,3.85
2023-04-30T18:22:42.858Z,3.97
2023-04-30T18:25:12.205Z,5.53
2023-04-30T18:27:42.124Z,4.95
2023-04-30T18:30:12.345Z,4.65
2023-04-30T18:32:40.293Z,5.55
2023-04-30T18:35:08.162Z,5.10
2023-04-30T18:37:37.247Z,4.00
2023-04-30T18:40:10.408Z,6.18
2023-04-30T18:42:39.747Z,4.82
2023-04-30T18:45:07.237Z,6.28
2023-04-30T18:47:39.657Z,4.55
2023-04-30T18:50:09.196Z,5.40
2023-04-30T18:52:40.274Z,5.03
2023-04-30T18:55:09.157Z,5.13
2023-04-30T18:57:41.986Z,5.28
2023-04-30T19:00:10.496Z,6.03
2023-04-30T19:02:38.652Z,6.70
2023-04-30T19:05:31.181Z,5.85
2023-04-30T19:07:59.641Z,5.38
2023-04-30T19:10:27.385Z,5.35
2023-04-30T19:12:55.844Z,5.82
2023-04-30T19:15:23.340Z,5.13
2023-04-30T19:17:52.947Z,5.10
2023-04-30T19:20:20.823Z,5.88
2023-04-30T19:22:50.207Z,5.55
2023-04-30T19:25:47.736Z,5.45
2023-04-30T19:28:17.621Z,4.87
2023-04-30T19:30:46.441Z,5.43
2023-04-30T19:33:16.667Z,3.90
2023-04-30T19:35:54.497Z,4.63
2023-04-30T19:38:25.070Z,5.53
2023-04-30T19:40:54.275Z,5.57
2023-04-30T19:43:23.191Z,5.00
2023-04-30T19:45:57.005Z,4.60
2023-04-30T19:48:26.509Z,4.22
2023-04-30T19:50:54.228Z,4.80
2023-04-30T19:53:23.233Z,4.10
2023-04-30T19:55:51.863Z,4.68
2023-04-30T19:58:19.313Z,4.95
2023-04-30T20:00:48.312Z,5.00
2023-04-30T20:03:17.203Z,5.45
2023-04-30T20:05:49.118Z,5.13
2023-04-30T20:08:16.439Z,6.30
2023-04-30T20:10:44.563Z,5.90
2023-04-30T20:13:13.186Z,5.40
2023-04-30T20:16:06.147Z,5.82
2023-04-30T20:18:33.574Z,5.07
2023-04-30T20:21:00.923Z,4.65
2023-04-30T20:23:28.467Z,6.03
2023-04-30T20:25:55.327Z,5.80
2023-04-30T20:28:22.357Z,5.35
2023-04-30T20:30:49.529Z,5.17
2023-04-30T20:33:19.352Z,6.32
2023-04-30T20:35:47.757Z,5.50
2023-04-30T20:38:16.315Z,7.18
2023-04-30T20:40:47.730Z,7.68
2023-04-30T20:43:17.065Z,6.80
2023-04-30T20:45:44.969Z,7.15
2023-04-30T20:48:13.158Z,7.32
2023-04-30T20:50:40.348Z,6.50
2023-04-30T20:53:08.418Z,6.43
2023-04-30T20:55:38.636Z,6.40
2023-04-30T20:58:05.804Z,6.50
2023-04-30T21:00:32.662Z,6.50
2023-04-30T21:02:59.475Z,5.85
2023-04-30T21:05:26.737Z,6.68
2023-04-30T21:07:53.566Z,5.60
2023-04-30T21:10:20.377Z,5.40
2023-04-30T21:12:47.310Z,5.78
2023-04-30T21:15:14.473Z,5.43
2023-04-30T21:17:41.366Z,5.72
2023-04-30T21:20:09.004Z,7.40
2023-04-30T21:22:35.940Z,5.10
2023-04-30T21:25:02.802Z,5.78
2023-04-30T21:27:29.861Z,5.47
2023-04-30T21:29:57.090Z,6.57
2023-04-30T21:32:24.173Z,7.03
2023-04-30T21:34:51.031Z,5.80
2023-04-30T21:37:17.907Z,7.43
2023-04-30T21:39:44.827Z,6.47
2023-04-30T21:42:11.862Z,5.93
2023-04-30T21:44:38.719Z,6.50
2023-04-30T21:47:05.522Z,6.75
2023-04-30T21:49:32.739Z,5.38
2023-04-30T21:51:59.630Z,6.53
2023-04-30T21:54:26.382Z,5.18
2023-04-30T21:56:53.274Z,5.37
2023-04-30T21:59:20.279Z,6.07
2023-04-30T22:01:47.192Z,6.90
2023-04-30T22:04:14.008Z,6.78
2023-04-30T22:06:40.932Z,5.72
2023-04-30T22:09:07.936Z,8.43
2023-04-30T22:11:36.695Z,6.28
2023-04-30T22:14:03.733Z,5.82
2023-04-30T22:16:30.602Z,5.55
2023-04-30T22:18:59.293Z,6.20
2023-04-30T22:21:26.173Z,5.10
2023-04-30T22:23:52.970Z,6.47
2023-04-30T22:26:25.328Z,6.38
2023-04-30T22:28:53.195Z,4.55
2023-04-30T22:31:19.954Z,5.63
2023-04-30T22:33:47.862Z,5.93
2023-04-30T22:36:15.096Z,5.55
2023-04-30T22:38:42.559Z,4.60
2023-04-30T22:41:11.873Z,5.53
2023-04-30T22:43:40.169Z,4.93
2023-04-30T22:46:07.713Z,6.10
2023-04-30T22:48:34.680Z,5.55
2023-04-30T22:51:01.623Z,5.50
2023-04-30T22:53:28.739Z,5.45
2023-04-30T22:55:56.327Z,4.60
2023-04-30T22:58:23.047Z,5.93
2023-04-30T23:00:53.491Z,5.32
2023-04-30T23:03:20.329Z,5.97
2023-04-30T23:05:47.088Z,6.45
2023-04-30T23:08:14.889Z,4.85
2023-04-30T23:10:44.713Z,5.37
2023-04-30T23:13:11.549Z,5.97
2023-04-30T23:15:38.494Z,5.35
2023-04-30T23:18:05.411Z,4.20
2023-04-30T23:20:32.201Z,5.53
2023-04-30T23:22:59.287Z,4.73
2023-04-30T23:25:26.117Z,6.50
2023-04-30T23:28:21.843Z,6.40
2023-04-30T23:30:54.635Z,5.40
2023-04-30T23:33:22.789Z,4.82
2023-04-30T23:35:52.902Z,4.27
2023-04-30T23:38:20.395Z,7.43
2023-04-30T23:40:48.281Z,3.97
2023-04-30T23:43:15.107Z,5.60
2023-04-30T23:45:43.748Z,5.03
2023-04-30T23:48:10.676Z,4.83
2023-04-30T23:50:39.241Z,4.60
2023-04-30T23:53:06.185Z,6.53
2023-04-30T23:55:33.528Z,5.68
2023-04-30T23:58:00.443Z,4.43
